sensor_id;sensor_type;location;lat;lon;timestamp;P1;durP1;ratioP1;P2;durP2;ratioP2
3443;SDS011;1736;52.068;6.968;2023-07-20T00:02:23;7.07;;;5.97;;
3443;SDS011;1736;52.068;6.968;2023-07-20T00:04:50;7.80;;;5.67;;
3443;SDS011;1736;52.068;6.968;2023-07-20T00:07:16;8.93;;;6.40;;
3443;SDS011;1736;52.068;6.968;2023-07-20T00:09:43;6.90;;;5.50;;
3443;SDS011;1736;52.068;6.968;2023-07-20T00:12:09;7.40;;;5.50;;
3443;SDS011;1736;52.068;6.968;2023-07-20T00:14:37;5.60;;;5.10;;
3443;SDS011;1736;52.068;6.968;2023-07-20T00:17:04;9.47;;;5.90;;
3443;SDS011;1736;52.068;6.968;2023-07-20T00:19:31;7.17;;;6.00;;
3443;SDS011;1736;52.068;6.968;2023-07-20T00:21:58;7.00;;;5.80;;
3443;SDS011;1736;52.068;6.968;2023-07-20T00:24:24;7.07;;;5.67;;
3443;SDS011;1736;52.068;6.968;2023-07-20T00:26:51;9.33;;;6.23;;
3443;SDS011;1736;52.068;6.968;2023-07-20T00:29:18;7.10;;;6.10;;
3443;SDS011;1736;52.068;6.968;2023-07-20T00:31:46;6.90;;;6.20;;
3443;SDS011;1736;52.068;6.968;2023-07-20T00:34:12;9.20;;;6.30;;
3443;SDS011;1736;52.068;6.968;2023-07-20T00:36:39;7.17;;;6.47;;
3443;SDS011;1736;52.068;6.968;2023-07-20T00:39:06;9.53;;;6.53;;
3443;SDS011;1736;52.068;6.968;2023-07-20T00:41:33;8.53;;;7.47;;
3443;SDS011;1736;52.068;6.968;2023-07-20T00:43:59;9.23;;;6.87;;
3443;SDS011;1736;52.068;6.968;2023-07-20T00:46:26;9.93;;;6.60;;
3443;SDS011;1736;52.068;6.968;2023-07-20T00:48:54;8.20;;;6.70;;
3443;SDS011;1736;52.068;6.968;2023-07-20T00:51:21;8.53;;;6.43;;
3443;SDS011;1736;52.068;6.968;2023-07-20T00:53:50;13.37;;;7.40;;
3443;SDS011;1736;52.068;6.968;2023-07-20T00:56:17;7.90;;;6.80;;
3443;SDS011;1736;52.068;6.968;2023-07-20T00:58:44;8.70;;;7.37;;
3443;SDS011;1736;52.068;6.968;2023-07-20T01:01:10;12.10;;;7.50;;
3443;SDS011;1736;52.068;6.968;2023-07-20T01:03:37;10.23;;;6.70;;
3443;SDS011;1736;52.068;6.968;2023-07-20T01:06:08;12.90;;;9.07;;
3443;SDS011;1736;52.068;6.968;2023-07-20T01:08:43;11.00;;;8.80;;
3443;SDS011;1736;52.068;6.968;2023-07-20T01:11:16;9.37;;;8.47;;
3443;SDS011;1736;52.068;6.968;2023-07-20T01:13:49;10.33;;;8.00;;
3443;SDS011;1736;52.068;6.968;2023-07-20T01:16:16;12.93;;;9.27;;
3443;SDS011;1736;52.068;6.968;2023-07-20T01:18:43;9.93;;;7.83;;
3443;SDS011;1736;52.068;6.968;2023-07-20T01:21:12;14.70;;;9.23;;
3443;SDS011;1736;52.068;6.968;2023-07-20T01:26:52;12.10;;;9.40;;
3443;SDS011;1736;52.068;6.968;2023-07-20T01:29:42;13.67;;;10.70;;
3443;SDS011;1736;52.068;6.968;2023-07-20T01:32:23;12.13;;;9.07;;
3443;SDS011;1736;52.068;6.968;2023-07-20T01:34:50;11.93;;;9.30;;
3443;SDS011;1736;52.068;6.968;2023-07-20T01:37:20;13.90;;;9.77;;
3443;SDS011;1736;52.068;6.968;2023-07-20T01:39:51;12.60;;;10.40;;
3443;SDS011;1736;52.068;6.968;2023-07-20T01:42:20;15.10;;;10.30;;
3443;SDS011;1736;52.068;6.968;2023-07-20T01:44:50;15.20;;;11.20;;
3443;SDS011;1736;52.068;6.968;2023-07-20T01:47:17;14.83;;;10.40;;
3443;SDS011;1736;52.068;6.968;2023-07-20T01:49:45;14.03;;;10.87;;
3443;SDS011;1736;52.068;6.968;2023-07-20T01:52:12;15.63;;;12.30;;
3443;SDS011;1736;52.068;6.968;2023-07-20T01:54:38;17.93;;;12.33;;
3443;SDS011;1736;52.068;6.968;2023-07-20T01:57:05;24.70;;;12.23;;
3443;SDS011;1736;52.068;6.968;2023-07-20T01:59:31;17.03;;;12.23;;
3443;SDS011;1736;52.068;6.968;2023-07-20T02:01:58;18.13;;;12.93;;
3443;SDS011;1736;52.068;6.968;2023-07-20T02:04:24;17.77;;;13.10;;
3443;SDS011;1736;52.068;6.968;2023-07-20T02:06:52;18.03;;;12.23;;
3443;SDS011;1736;52.068;6.968;2023-07-20T02:09:19;18.83;;;14.40;;
3443;SDS011;1736;52.068;6.968;2023-07-20T02:11:46;21.63;;;17.20;;
3443;SDS011;1736;52.068;6.968;2023-07-20T02:14:13;22.27;;;16.87;;
3443;SDS011;1736;52.068;6.968;2023-07-20T02:16:39;20.60;;;14.87;;
3443;SDS011;1736;52.068;6.968;2023-07-20T02:19:06;19.13;;;13.60;;
3443;SDS011;1736;52.068;6.968;2023-07-20T02:21:33;20.97;;;14.10;;
3443;SDS011;1736;52.068;6.968;2023-07-20T02:24:01;20.87;;;11.83;;
3443;SDS011;1736;52.068;6.968;2023-07-20T02:26:27;19.73;;;12.63;;
3443;SDS011;1736;52.068;6.968;2023-07-20T02:28:54;16.10;;;12.20;;
3443;SDS011;1736;52.068;6.968;2023-07-20T02:31:20;16.13;;;13.17;;
3443;SDS011;1736;52.068;6.968;2023-07-20T02:33:47;16.33;;;13.20;;
3443;SDS011;1736;52.068;6.968;2023-07-20T02:36:13;18.70;;;13.67;;
3443;SDS011;1736;52.068;6.968;2023-07-20T02:38:41;23.23;;;12.93;;
3443;SDS011;1736;52.068;6.968;2023-07-20T02:41:09;21.47;;;12.30;;
3443;SDS011;1736;52.068;6.968;2023-07-20T02:46:58;13.60;;;10.67;;
3443;SDS011;1736;52.068;6.968;2023-07-20T02:49:24;19.73;;;10.40;;
3443;SDS011;1736;52.068;6.968;2023-07-20T02:51:51;11.43;;;9.07;;
3443;SDS011;1736;52.068;6.968;2023-07-20T02:54:17;13.10;;;9.17;;
3443;SDS011;1736;52.068;6.968;2023-07-20T02:56:45;14.27;;;9.13;;
3443;SDS011;1736;52.068;6.968;2023-07-20T02:59:12;9.33;;;8.23;;
3443;SDS011;1736;52.068;6.968;2023-07-20T03:01:38;9.83;;;7.80;;
3443;SDS011;1736;52.068;6.968;2023-07-20T03:04:07;10.63;;;7.93;;
3443;SDS011;1736;52.068;6.968;2023-07-20T03:06:35;8.60;;;7.70;;
3443;SDS011;1736;52.068;6.968;2023-07-20T03:09:01;8.67;;;7.30;;
3443;SDS011;1736;52.068;6.968;2023-07-20T03:11:29;9.83;;;7.70;;
3443;SDS011;1736;52.068;6.968;2023-07-20T03:13:57;7.03;;;6.33;;
3443;SDS011;1736;52.068;6.968;2023-07-20T03:16:23;7.83;;;6.70;;
3443;SDS011;1736;52.068;6.968;2023-07-20T03:18:51;10.57;;;7.67;;
3443;SDS011;1736;52.068;6.968;2023-07-20T03:21:18;11.00;;;7.30;;
3443;SDS011;1736;52.068;6.968;2023-07-20T03:23:44;8.83;;;6.60;;
3443;SDS011;1736;52.068;6.968;2023-07-20T03:26:11;6.50;;;5.87;;
3443;SDS011;1736;52.068;6.968;2023-07-20T03:28:37;10.10;;;7.20;;
3443;SDS011;1736;52.068;6.968;2023-07-20T03:31:06;9.93;;;7.30;;
3443;SDS011;1736;52.068;6.968;2023-07-20T03:33:32;10.40;;;8.20;;
3443;SDS011;1736;52.068;6.968;2023-07-20T03:35:59;9.23;;;7.67;;
3443;SDS011;1736;52.068;6.968;2023-07-20T03:38:26;10.20;;;8.67;;
3443;SDS011;1736;52.068;6.968;2023-07-20T03:40:54;8.13;;;7.20;;
3443;SDS011;1736;52.068;6.968;2023-07-20T03:43:21;8.43;;;7.53;;
3443;SDS011;1736;52.068;6.968;2023-07-20T03:45:48;9.47;;;7.87;;
3443;SDS011;1736;52.068;6.968;2023-07-20T03:48:16;9.00;;;7.93;;
3443;SDS011;1736;52.068;6.968;2023-07-20T03:50:44;11.20;;;7.63;;
3443;SDS011;1736;52.068;6.968;2023-07-20T03:53:11;10.23;;;7.53;;
3443;SDS011;1736;52.068;6.968;2023-07-20T03:55:37;9.40;;;7.90;;
3443;SDS011;1736;52.068;6.968;2023-07-20T03:58:05;10.07;;;7.70;;
3443;SDS011;1736;52.068;6.968;2023-07-20T04:00:32;9.20;;;8.03;;
3443;SDS011;1736;52.068;6.968;2023-07-20T04:02:58;9.13;;;7.80;;
3443;SDS011;1736;52.068;6.968;2023-07-20T04:05:26;10.13;;;7.87;;
3443;SDS011;1736;52.068;6.968;2023-07-20T04:07:53;11.70;;;9.10;;
3443;SDS011;1736;52.068;6.968;2023-07-20T04:10:19;11.10;;;8.13;;
3443;SDS011;1736;52.068;6.968;2023-07-20T04:12:46;12.20;;;10.50;;
3443;SDS011;1736;52.068;6.968;2023-07-20T04:15:12;12.47;;;11.17;;
3443;SDS011;1736;52.068;6.968;2023-07-20T04:17:39;12.70;;;10.70;;
3443;SDS011;1736;52.068;6.968;2023-07-20T04:20:07;14.17;;;10.27;;
3443;SDS011;1736;52.068;6.968;2023-07-20T04:22:35;13.17;;;11.00;;
3443;SDS011;1736;52.068;6.968;2023-07-20T04:25:02;17.00;;;10.77;;
3443;SDS011;1736;52.068;6.968;2023-07-20T04:27:29;15.07;;;11.30;;
3443;SDS011;1736;52.068;6.968;2023-07-20T04:29:56;12.80;;;10.43;;
3443;SDS011;1736;52.068;6.968;2023-07-20T04:32:24;11.50;;;9.33;;
3443;SDS011;1736;52.068;6.968;2023-07-20T04:34:50;12.90;;;10.17;;
3443;SDS011;1736;52.068;6.968;2023-07-20T04:37:17;14.73;;;10.40;;
3443;SDS011;1736;52.068;6.968;2023-07-20T04:39:45;11.80;;;8.87;;
3443;SDS011;1736;52.068;6.968;2023-07-20T04:42:12;10.80;;;9.40;;
3443;SDS011;1736;52.068;6.968;2023-07-20T04:44:39;9.90;;;8.43;;
3443;SDS011;1736;52.068;6.968;2023-07-20T04:47:05;10.03;;;8.67;;
3443;SDS011;1736;52.068;6.968;2023-07-20T04:49:33;10.47;;;8.93;;
3443;SDS011;1736;52.068;6.968;2023-07-20T04:52:00;11.40;;;8.83;;
3443;SDS011;1736;52.068;6.968;2023-07-20T04:54:27;10.10;;;8.47;;
3443;SDS011;1736;52.068;6.968;2023-07-20T04:56:55;10.37;;;8.23;;
3443;SDS011;1736;52.068;6.968;2023-07-20T04:59:22;9.70;;;7.67;;
3443;SDS011;1736;52.068;6.968;2023-07-20T05:01:48;10.33;;;7.97;;
3443;SDS011;1736;52.068;6.968;2023-07-20T05:04:15;10.77;;;8.60;;
3443;SDS011;1736;52.068;6.968;2023-07-20T05:06:42;8.80;;;7.50;;
3443;SDS011;1736;52.068;6.968;2023-07-20T05:09:08;9.63;;;8.20;;
3443;SDS011;1736;52.068;6.968;2023-07-20T05:11:35;10.17;;;8.40;;
3443;SDS011;1736;52.068;6.968;2023-07-20T05:14:03;12.07;;;8.70;;
3443;SDS011;1736;52.068;6.968;2023-07-20T05:16:29;7.67;;;6.93;;
3443;SDS011;1736;52.068;6.968;2023-07-20T05:18:56;9.37;;;7.83;;
3443;SDS011;1736;52.068;6.968;2023-07-20T05:21:23;11.63;;;8.27;;
3443;SDS011;1736;52.068;6.968;2023-07-20T05:23:49;11.37;;;8.20;;
3443;SDS011;1736;52.068;6.968;2023-07-20T05:26:16;9.70;;;8.00;;
3443;SDS011;1736;52.068;6.968;2023-07-20T05:28:43;9.00;;;8.10;;
3443;SDS011;1736;52.068;6.968;2023-07-20T05:31:13;12.70;;;8.40;;
3443;SDS011;1736;52.068;6.968;2023-07-20T05:33:40;8.87;;;7.97;;
3443;SDS011;1736;52.068;6.968;2023-07-20T05:36:06;9.20;;;7.40;;
3443;SDS011;1736;52.068;6.968;2023-07-20T05:38:33;9.53;;;7.93;;
3443;SDS011;1736;52.068;6.968;2023-07-20T05:40:59;9.43;;;6.83;;
3443;SDS011;1736;52.068;6.968;2023-07-20T05:43:28;8.63;;;7.07;;
3443;SDS011;1736;52.068;6.968;2023-07-20T05:45:55;7.60;;;6.80;;
3443;SDS011;1736;52.068;6.968;2023-07-20T05:48:23;8.30;;;7.50;;
3443;SDS011;1736;52.068;6.968;2023-07-20T05:50:50;9.50;;;7.20;;
3443;SDS011;1736;52.068;6.968;2023-07-20T05:53:16;7.80;;;7.00;;
3443;SDS011;1736;52.068;6.968;2023-07-20T05:55:43;7.13;;;6.43;;
3443;SDS011;1736;52.068;6.968;2023-07-20T05:58:09;6.73;;;6.13;;
3443;SDS011;1736;52.068;6.968;2023-07-20T06:00:36;5.73;;;5.13;;
3443;SDS011;1736;52.068;6.968;2023-07-20T06:03:03;6.37;;;5.20;;
3443;SDS011;1736;52.068;6.968;2023-07-20T06:05:31;5.47;;;4.97;;
3443;SDS011;1736;52.068;6.968;2023-07-20T06:07:57;5.77;;;5.13;;
3443;SDS011;1736;52.068;6.968;2023-07-20T06:10:25;5.73;;;5.17;;
3443;SDS011;1736;52.068;6.968;2023-07-20T06:12:52;5.60;;;5.10;;
3443;SDS011;1736;52.068;6.968;2023-07-20T06:15:26;7.07;;;5.37;;
3443;SDS011;1736;52.068;6.968;2023-07-20T06:17:54;5.70;;;5.20;;
3443;SDS011;1736;52.068;6.968;2023-07-20T06:20:23;7.20;;;4.93;;
3443;SDS011;1736;52.068;6.968;2023-07-20T06:22:51;4.37;;;3.97;;
3443;SDS011;1736;52.068;6.968;2023-07-20T06:25:17;4.40;;;3.80;;
3443;SDS011;1736;52.068;6.968;2023-07-20T06:27:45;4.97;;;4.57;;
3443;SDS011;1736;52.068;6.968;2023-07-20T06:30:12;4.20;;;3.80;;
3443;SDS011;1736;52.068;6.968;2023-07-20T06:32:38;3.93;;;3.60;;
3443;SDS011;1736;52.068;6.968;2023-07-20T06:35:05;3.43;;;3.23;;
3443;SDS011;1736;52.068;6.968;2023-07-20T06:37:33;5.70;;;3.97;;
3443;SDS011;1736;52.068;6.968;2023-07-20T06:40:01;4.27;;;3.77;;
3443;SDS011;1736;52.068;6.968;2023-07-20T06:42:28;3.83;;;3.53;;
3443;SDS011;1736;52.068;6.968;2023-07-20T06:44:56;4.57;;;3.73;;
3443;SDS011;1736;52.068;6.968;2023-07-20T06:47:22;3.87;;;3.47;;
3443;SDS011;1736;52.068;6.968;2023-07-20T06:49:49;3.60;;;3.30;;
3443;SDS011;1736;52.068;6.968;2023-07-20T06:52:15;3.97;;;3.60;;
3443;SDS011;1736;52.068;6.968;2023-07-20T06:54:42;4.50;;;3.80;;
3443;SDS011;1736;52.068;6.968;2023-07-20T06:57:10;7.13;;;4.70;;
3443;SDS011;1736;52.068;6.968;2023-07-20T06:59:37;6.20;;;4.43;;
3443;SDS011;1736;52.068;6.968;2023-07-20T07:02:04;9.70;;;4.57;;
3443;SDS011;1736;52.068;6.968;2023-07-20T07:04:31;5.07;;;4.67;;
3443;SDS011;1736;52.068;6.968;2023-07-20T07:06:58;4.47;;;4.07;;
3443;SDS011;1736;52.068;6.968;2023-07-20T07:09:25;5.90;;;4.73;;
3443;SDS011;1736;52.068;6.968;2023-07-20T07:11:52;4.67;;;4.27;;
3443;SDS011;1736;52.068;6.968;2023-07-20T07:14:20;5.40;;;4.33;;
3443;SDS011;1736;52.068;6.968;2023-07-20T07:16:46;3.73;;;3.37;;
3443;SDS011;1736;52.068;6.968;2023-07-20T07:19:13;4.60;;;3.80;;
3443;SDS011;1736;52.068;6.968;2023-07-20T07:21:40;4.57;;;3.50;;
3443;SDS011;1736;52.068;6.968;2023-07-20T07:24:06;4.20;;;3.80;;
3443;SDS011;1736;52.068;6.968;2023-07-20T07:26:34;3.43;;;3.23;;
3443;SDS011;1736;52.068;6.968;2023-07-20T07:29:01;3.90;;;3.40;;
3443;SDS011;1736;52.068;6.968;2023-07-20T07:31:29;4.03;;;3.70;;
3443;SDS011;1736;52.068;6.968;2023-07-20T07:33:56;5.43;;;3.27;;
3443;SDS011;1736;52.068;6.968;2023-07-20T07:36:23;3.13;;;2.73;;
3443;SDS011;1736;52.068;6.968;2023-07-20T07:38:50;2.80;;;2.60;;
3443;SDS011;1736;52.068;6.968;2023-07-20T07:41:17;2.47;;;2.27;;
3443;SDS011;1736;52.068;6.968;2023-07-20T07:43:43;2.50;;;2.40;;
3443;SDS011;1736;52.068;6.968;2023-07-20T07:46:10;2.90;;;2.47;;
3443;SDS011;1736;52.068;6.968;2023-07-20T07:48:38;7.80;;;1.90;;
3443;SDS011;1736;52.068;6.968;2023-07-20T07:51:04;2.70;;;2.30;;
3443;SDS011;1736;52.068;6.968;2023-07-20T07:53:31;2.40;;;2.17;;
3443;SDS011;1736;52.068;6.968;2023-07-20T07:55:58;19.07;;;3.10;;
3443;SDS011;1736;52.068;6.968;2023-07-20T07:58:25;1.83;;;1.73;;
3443;SDS011;1736;52.068;6.968;2023-07-20T08:00:52;1.93;;;1.63;;
3443;SDS011;1736;52.068;6.968;2023-07-20T08:03:18;2.43;;;2.10;;
3443;SDS011;1736;52.068;6.968;2023-07-20T08:05:46;3.03;;;2.40;;
3443;SDS011;1736;52.068;6.968;2023-07-20T08:08:13;3.03;;;2.20;;
3443;SDS011;1736;52.068;6.968;2023-07-20T08:10:39;2.90;;;2.27;;
3443;SDS011;1736;52.068;6.968;2023-07-20T08:13:06;2.17;;;1.80;;
3443;SDS011;1736;52.068;6.968;2023-07-20T08:15:33;1.80;;;1.70;;
3443;SDS011;1736;52.068;6.968;2023-07-20T08:17:59;3.13;;;1.80;;
3443;SDS011;1736;52.068;6.968;2023-07-20T08:20:26;2.00;;;1.90;;
3443;SDS011;1736;52.068;6.968;2023-07-20T08:22:53;2.10;;;2.00;;
3443;SDS011;1736;52.068;6.968;2023-07-20T08:25:20;2.67;;;2.10;;
3443;SDS011;1736;52.068;6.968;2023-07-20T08:27:47;1.93;;;1.70;;
3443;SDS011;1736;52.068;6.968;2023-07-20T08:30:14;2.43;;;1.63;;
3443;SDS011;1736;52.068;6.968;2023-07-20T08:32:40;2.13;;;1.97;;
3443;SDS011;1736;52.068;6.968;2023-07-20T08:35:07;2.33;;;1.87;;
3443;SDS011;1736;52.068;6.968;2023-07-20T08:37:34;2.23;;;1.93;;
3443;SDS011;1736;52.068;6.968;2023-07-20T08:40:02;2.20;;;2.00;;
3443;SDS011;1736;52.068;6.968;2023-07-20T08:42:33;2.37;;;2.27;;
3443;SDS011;1736;52.068;6.968;2023-07-20T08:45:00;4.80;;;1.63;;
3443;SDS011;1736;52.068;6.968;2023-07-20T08:47:32;1.93;;;1.70;;
3443;SDS011;1736;52.068;6.968;2023-07-20T08:50:02;1.87;;;1.67;;
3443;SDS011;1736;52.068;6.968;2023-07-20T08:52:34;4.30;;;2.10;;
3443;SDS011;1736;52.068;6.968;2023-07-20T08:55:03;1.60;;;1.50;;
3443;SDS011;1736;52.068;6.968;2023-07-20T08:57:30;1.40;;;1.30;;
3443;SDS011;1736;52.068;6.968;2023-07-20T08:59:59;2.20;;;1.70;;
3443;SDS011;1736;52.068;6.968;2023-07-20T09:02:29;1.80;;;1.60;;
3443;SDS011;1736;52.068;6.968;2023-07-20T09:05:00;3.00;;;1.70;;
3443;SDS011;1736;52.068;6.968;2023-07-20T09:07:27;2.00;;;1.80;;
3443;SDS011;1736;52.068;6.968;2023-07-20T09:09:56;1.80;;;1.70;;
3443;SDS011;1736;52.068;6.968;2023-07-20T09:12:25;1.83;;;1.60;;
3443;SDS011;1736;52.068;6.968;2023-07-20T09:14:52;1.87;;;1.70;;
3443;SDS011;1736;52.068;6.968;2023-07-20T09:17:18;1.90;;;1.80;;
3443;SDS011;1736;52.068;6.968;2023-07-20T09:19:45;1.80;;;1.70;;
3443;SDS011;1736;52.068;6.968;2023-07-20T09:22:13;1.57;;;1.47;;
3443;SDS011;1736;52.068;6.968;2023-07-20T09:24:40;1.50;;;1.40;;
3443;SDS011;1736;52.068;6.968;2023-07-20T09:27:07;6.53;;;3.20;;
3443;SDS011;1736;52.068;6.968;2023-07-20T09:29:38;2.73;;;1.63;;
3443;SDS011;1736;52.068;6.968;2023-07-20T09:32:14;1.50;;;1.40;;
3443;SDS011;1736;52.068;6.968;2023-07-20T09:34:45;1.77;;;1.40;;
3443;SDS011;1736;52.068;6.968;2023-07-20T09:37:11;2.23;;;1.33;;
3443;SDS011;1736;52.068;6.968;2023-07-20T09:39:42;2.23;;;1.23;;
3443;SDS011;1736;52.068;6.968;2023-07-20T09:42:10;1.47;;;1.20;;
3443;SDS011;1736;52.068;6.968;2023-07-20T09:44:39;1.40;;;1.30;;
3443;SDS011;1736;52.068;6.968;2023-07-20T09:47:06;1.57;;;1.30;;
3443;SDS011;1736;52.068;6.968;2023-07-20T09:49:34;1.33;;;1.10;;
3443;SDS011;1736;52.068;6.968;2023-07-20T09:52:05;1.87;;;1.30;;
3443;SDS011;1736;52.068;6.968;2023-07-20T09:54:33;1.30;;;1.20;;
3443;SDS011;1736;52.068;6.968;2023-07-20T09:57:00;1.50;;;1.40;;
3443;SDS011;1736;52.068;6.968;2023-07-20T09:59:29;4.63;;;1.50;;
3443;SDS011;1736;52.068;6.968;2023-07-20T10:01:57;1.30;;;1.20;;
3443;SDS011;1736;52.068;6.968;2023-07-20T10:04:24;1.83;;;1.60;;
3443;SDS011;1736;52.068;6.968;2023-07-20T10:06:52;1.83;;;1.30;;
3443;SDS011;1736;52.068;6.968;2023-07-20T10:09:21;1.83;;;1.50;;
3443;SDS011;1736;52.068;6.968;2023-07-20T10:11:50;1.80;;;1.30;;
3443;SDS011;1736;52.068;6.968;2023-07-20T10:14:19;3.47;;;1.57;;
3443;SDS011;1736;52.068;6.968;2023-07-20T10:16:49;2.33;;;1.50;;
3443;SDS011;1736;52.068;6.968;2023-07-20T10:19:20;1.60;;;1.50;;
3443;SDS011;1736;52.068;6.968;2023-07-20T10:21:51;1.27;;;1.20;;
3443;SDS011;1736;52.068;6.968;2023-07-20T10:24:22;1.87;;;1.50;;
3443;SDS011;1736;52.068;6.968;2023-07-20T10:26:50;1.40;;;1.30;;
3443;SDS011;1736;52.068;6.968;2023-07-20T10:29:17;1.50;;;1.40;;
3443;SDS011;1736;52.068;6.968;2023-07-20T10:31:44;1.30;;;1.20;;
3443;SDS011;1736;52.068;6.968;2023-07-20T10:34:11;2.03;;;1.20;;
3443;SDS011;1736;52.068;6.968;2023-07-20T10:36:44;1.67;;;1.20;;
3443;SDS011;1736;52.068;6.968;2023-07-20T10:39:23;1.33;;;1.23;;
3443;SDS011;1736;52.068;6.968;2023-07-20T10:41:53;1.17;;;1.17;;
3443;SDS011;1736;52.068;6.968;2023-07-20T10:44:26;1.30;;;1.20;;
3443;SDS011;1736;52.068;6.968;2023-07-20T10:46:58;1.73;;;1.33;;
3443;SDS011;1736;52.068;6.968;2023-07-20T10:49:26;1.67;;;1.40;;
3443;SDS011;1736;52.068;6.968;2023-07-20T10:51:58;1.30;;;1.20;;
3443;SDS011;1736;52.068;6.968;2023-07-20T10:54:46;1.40;;;1.30;;
3443;SDS011;1736;52.068;6.968;2023-07-20T10:57:21;1.80;;;1.37;;
3443;SDS011;1736;52.068;6.968;2023-07-20T10:59:49;1.30;;;1.20;;
3443;SDS011;1736;52.068;6.968;2023-07-20T11:02:17;1.10;;;1.10;;
3443;SDS011;1736;52.068;6.968;2023-07-20T11:04:45;1.30;;;1.20;;
3443;SDS011;1736;52.068;6.968;2023-07-20T11:07:16;2.40;;;1.17;;
3443;SDS011;1736;52.068;6.968;2023-07-20T11:09:43;1.00;;;1.00;;
3443;SDS011;1736;52.068;6.968;2023-07-20T11:12:10;5.33;;;1.03;;
3443;SDS011;1736;52.068;6.968;2023-07-20T11:14:40;4.40;;;1.30;;
3443;SDS011;1736;52.068;6.968;2023-07-20T11:17:13;2.60;;;1.17;;
3443;SDS011;1736;52.068;6.968;2023-07-20T11:19:47;1.73;;;1.40;;
3443;SDS011;1736;52.068;6.968;2023-07-20T11:22:16;1.30;;;1.20;;
3443;SDS011;1736;52.068;6.968;2023-07-20T11:24:43;1.90;;;1.30;;
3443;SDS011;1736;52.068;6.968;2023-07-20T11:27:10;1.10;;;1.10;;
3443;SDS011;1736;52.068;6.968;2023-07-20T11:29:37;4.10;;;1.10;;
3443;SDS011;1736;52.068;6.968;2023-07-20T11:32:04;1.17;;;1.17;;
3443;SDS011;1736;52.068;6.968;2023-07-20T11:34:31;1.33;;;1.10;;
3443;SDS011;1736;52.068;6.968;2023-07-20T11:36:58;1.30;;;1.20;;
3443;SDS011;1736;52.068;6.968;2023-07-20T11:39:26;1.10;;;1.00;;
3443;SDS011;1736;52.068;6.968;2023-07-20T11:41:55;0.90;;;0.90;;
3443;SDS011;1736;52.068;6.968;2023-07-20T11:44:23;1.20;;;1.10;;
3443;SDS011;1736;52.068;6.968;2023-07-20T11:46:59;1.07;;;0.97;;
3443;SDS011;1736;52.068;6.968;2023-07-20T11:49:28;1.10;;;1.10;;
3443;SDS011;1736;52.068;6.968;2023-07-20T11:51:54;1.00;;;1.00;;
3443;SDS011;1736;52.068;6.968;2023-07-20T11:54:22;1.07;;;1.07;;
3443;SDS011;1736;52.068;6.968;2023-07-20T11:56:54;1.80;;;0.93;;
3443;SDS011;1736;52.068;6.968;2023-07-20T11:59:21;2.03;;;1.40;;
3443;SDS011;1736;52.068;6.968;2023-07-20T12:01:48;0.90;;;0.90;;
3443;SDS011;1736;52.068;6.968;2023-07-20T12:04:15;3.73;;;1.10;;
3443;SDS011;1736;52.068;6.968;2023-07-20T12:06:42;0.90;;;0.90;;
3443;SDS011;1736;52.068;6.968;2023-07-20T12:09:12;4.80;;;1.17;;
3443;SDS011;1736;52.068;6.968;2023-07-20T12:11:42;1.10;;;1.00;;
3443;SDS011;1736;52.068;6.968;2023-07-20T12:14:11;1.57;;;1.00;;
3443;SDS011;1736;52.068;6.968;2023-07-20T12:16:37;1.20;;;1.10;;
3443;SDS011;1736;52.068;6.968;2023-07-20T12:19:05;1.83;;;1.20;;
3443;SDS011;1736;52.068;6.968;2023-07-20T12:21:33;1.23;;;1.13;;
3443;SDS011;1736;52.068;6.968;2023-07-20T12:24:01;1.00;;;1.00;;
3443;SDS011;1736;52.068;6.968;2023-07-20T12:26:28;1.07;;;0.97;;
3443;SDS011;1736;52.068;6.968;2023-07-20T12:28:56;0.90;;;0.90;;
3443;SDS011;1736;52.068;6.968;2023-07-20T12:31:24;1.00;;;1.00;;
3443;SDS011;1736;52.068;6.968;2023-07-20T12:33:51;4.13;;;1.23;;
3443;SDS011;1736;52.068;6.968;2023-07-20T12:36:18;1.00;;;1.00;;
3443;SDS011;1736;52.068;6.968;2023-07-20T12:38:45;1.10;;;0.90;;
3443;SDS011;1736;52.068;6.968;2023-07-20T12:41:12;1.20;;;0.90;;
3443;SDS011;1736;52.068;6.968;2023-07-20T12:43:39;1.70;;;1.10;;
3443;SDS011;1736;52.068;6.968;2023-07-20T12:46:06;1.00;;;1.00;;
3443;SDS011;1736;52.068;6.968;2023-07-20T12:48:35;3.27;;;1.10;;
3443;SDS011;1736;52.068;6.968;2023-07-20T12:51:03;1.00;;;1.00;;
3443;SDS011;1736;52.068;6.968;2023-07-20T12:53:30;1.20;;;1.10;;
3443;SDS011;1736;52.068;6.968;2023-07-20T12:55:57;2.50;;;0.97;;
3443;SDS011;1736;52.068;6.968;2023-07-20T12:58:24;4.97;;;1.43;;
3443;SDS011;1736;52.068;6.968;2023-07-20T13:00:50;1.30;;;1.03;;
3443;SDS011;1736;52.068;6.968;2023-07-20T13:03:17;1.00;;;1.00;;
3443;SDS011;1736;52.068;6.968;2023-07-20T13:05:46;0.90;;;0.90;;
3443;SDS011;1736;52.068;6.968;2023-07-20T13:08:12;1.10;;;0.97;;
3443;SDS011;1736;52.068;6.968;2023-07-20T13:10:39;1.03;;;1.00;;
3443;SDS011;1736;52.068;6.968;2023-07-20T13:13:06;0.90;;;0.90;;
3443;SDS011;1736;52.068;6.968;2023-07-20T13:15:40;1.27;;;1.17;;
3443;SDS011;1736;52.068;6.968;2023-07-20T13:18:07;1.20;;;1.10;;
3443;SDS011;1736;52.068;6.968;2023-07-20T13:20:34;1.10;;;1.00;;
3443;SDS011;1736;52.068;6.968;2023-07-20T13:23:02;1.20;;;0.90;;
3443;SDS011;1736;52.068;6.968;2023-07-20T13:25:28;2.20;;;0.90;;
3443;SDS011;1736;52.068;6.968;2023-07-20T13:27:55;3.07;;;0.93;;
3443;SDS011;1736;52.068;6.968;2023-07-20T13:30:21;1.20;;;1.00;;
3443;SDS011;1736;52.068;6.968;2023-07-20T13:32:48;2.10;;;1.10;;
3443;SDS011;1736;52.068;6.968;2023-07-20T13:35:14;1.00;;;1.00;;
3443;SDS011;1736;52.068;6.968;2023-07-20T13:37:41;1.03;;;1.03;;
3443;SDS011;1736;52.068;6.968;2023-07-20T13:40:09;1.30;;;1.20;;
3443;SDS011;1736;52.068;6.968;2023-07-20T13:42:38;1.20;;;1.10;;
3443;SDS011;1736;52.068;6.968;2023-07-20T13:45:05;1.17;;;1.17;;
3443;SDS011;1736;52.068;6.968;2023-07-20T13:47:32;1.20;;;1.10;;
3443;SDS011;1736;52.068;6.968;2023-07-20T13:49:59;0.97;;;0.97;;
3443;SDS011;1736;52.068;6.968;2023-07-20T13:52:26;1.00;;;1.00;;
3443;SDS011;1736;52.068;6.968;2023-07-20T13:54:52;1.97;;;1.20;;
3443;SDS011;1736;52.068;6.968;2023-07-20T13:57:20;1.10;;;1.10;;
3443;SDS011;1736;52.068;6.968;2023-07-20T13:59:47;1.47;;;1.37;;
3443;SDS011;1736;52.068;6.968;2023-07-20T14:02:13;1.00;;;1.00;;
3443;SDS011;1736;52.068;6.968;2023-07-20T14:04:40;0.90;;;0.90;;
3443;SDS011;1736;52.068;6.968;2023-07-20T14:07:07;3.43;;;1.03;;
3443;SDS011;1736;52.068;6.968;2023-07-20T14:09:34;1.00;;;1.00;;
3443;SDS011;1736;52.068;6.968;2023-07-20T14:12:00;0.90;;;0.90;;
3443;SDS011;1736;52.068;6.968;2023-07-20T14:14:28;1.20;;;1.10;;
3443;SDS011;1736;52.068;6.968;2023-07-20T14:16:54;1.00;;;1.00;;
3443;SDS011;1736;52.068;6.968;2023-07-20T14:19:22;2.70;;;1.10;;
3443;SDS011;1736;52.068;6.968;2023-07-20T14:21:49;1.20;;;1.10;;
3443;SDS011;1736;52.068;6.968;2023-07-20T14:24:15;1.43;;;1.33;;
3443;SDS011;1736;52.068;6.968;2023-07-20T14:26:42;0.97;;;0.97;;
3443;SDS011;1736;52.068;6.968;2023-07-20T14:29:09;1.23;;;1.20;;
3443;SDS011;1736;52.068;6.968;2023-07-20T14:31:36;1.00;;;1.00;;
3443;SDS011;1736;52.068;6.968;2023-07-20T14:34:03;1.03;;;1.00;;
3443;SDS011;1736;52.068;6.968;2023-07-20T14:36:30;1.00;;;1.00;;
3443;SDS011;1736;52.068;6.968;2023-07-20T14:38:56;1.27;;;1.17;;
3443;SDS011;1736;52.068;6.968;2023-07-20T14:41:23;1.40;;;1.30;;
3443;SDS011;1736;52.068;6.968;2023-07-20T14:43:49;5.80;;;1.20;;
3443;SDS011;1736;52.068;6.968;2023-07-20T14:46:16;1.70;;;1.10;;
3443;SDS011;1736;52.068;6.968;2023-07-20T14:48:44;1.23;;;1.13;;
3443;SDS011;1736;52.068;6.968;2023-07-20T14:51:11;1.50;;;1.40;;
3443;SDS011;1736;52.068;6.968;2023-07-20T14:53:37;1.40;;;1.30;;
3443;SDS011;1736;52.068;6.968;2023-07-20T14:56:04;1.37;;;1.27;;
3443;SDS011;1736;52.068;6.968;2023-07-20T14:58:31;1.10;;;1.10;;
3443;SDS011;1736;52.068;6.968;2023-07-20T15:00:57;1.10;;;1.10;;
3443;SDS011;1736;52.068;6.968;2023-07-20T15:03:24;1.20;;;1.20;;
3443;SDS011;1736;52.068;6.968;2023-07-20T15:05:52;1.20;;;1.10;;
3443;SDS011;1736;52.068;6.968;2023-07-20T15:08:19;1.40;;;1.23;;
3443;SDS011;1736;52.068;6.968;2023-07-20T15:10:45;1.30;;;1.20;;
3443;SDS011;1736;52.068;6.968;2023-07-20T15:13:12;1.30;;;1.30;;
3443;SDS011;1736;52.068;6.968;2023-07-20T15:15:38;1.30;;;1.20;;
3443;SDS011;1736;52.068;6.968;2023-07-20T15:18:05;1.43;;;1.10;;
3443;SDS011;1736;52.068;6.968;2023-07-20T15:20:32;1.40;;;1.30;;